Time;durP1;ratioP1;P1;durP2;ratioP2;P2;SDS_P1;SDS_P2;PMS_P1;PMS_P2;Temp;Humidity;BMP_temperature;BMP_pressure;BME280_temperature;BME280_humidity;BME280_pressure;Samples;Min_cycle;Max_cycle;Signal;HPM_P1;HPM_P2
2022/03/12 00:00:48;;;;;;;;;4.25;4.25;;;;;11.40;64.01;101092.72;2452520;28;45406;-88
2022/03/12 00:01:58;;;;;;;;;3.00;3.00;;;;;11.39;64.22;101085.72;2451417;28;47256;-87
2022/03/12 00:03:12;;;;;;;;;2.00;2.00;;;;;11.38;64.13;101092.78;2451880;28;44784;-87
2022/03/12 00:04:22;;;;;;;;;3.25;2.75;;;;;11.37;64.32;101093.69;2450793;28;47272;-89
2022/03/12 00:05:35;;;;;;;;;3.25;3.25;;;;;11.35;64.27;101098.13;2444295;28;45307;-87
2022/03/12 00:06:47;;;;;;;;;4.00;3.00;;;;;11.34;64.45;101101.66;2451471;28;46529;-88
2022/03/12 00:08:00;;;;;;;;;3.25;3.25;;;;;11.32;64.32;101096.47;2451443;28;45339;-89
2022/03/12 00:09:10;;;;;;;;;2.25;2.25;;;;;11.31;64.03;101107.88;2451650;28;46184;-88
2022/03/12 00:10:22;;;;;;;;;3.00;2.00;;;;;11.29;64.10;101103.56;2451561;28;45203;-88
2022/03/12 00:11:34;;;;;;;;;6.00;3.25;;;;;11.31;64.20;101109.69;2451277;28;47154;-88
2022/03/12 00:12:45;;;;;;;;;4.25;4.00;;;;;11.27;64.12;101106.25;2451503;28;44816;-88
2022/03/12 00:14:00;;;;;;;;;4.00;2.75;;;;;11.28;64.08;101108.00;2451749;28;45557;-89
2022/03/12 00:15:12;;;;;;;;;2.00;1.25;;;;;11.24;64.20;101108.97;2451553;28;44664;-88
2022/03/12 00:16:24;;;;;;;;;1.50;1.50;;;;;11.24;64.39;101111.59;2451454;28;46291;-88
2022/03/12 00:17:36;;;;;;;;;4.75;3.50;;;;;11.21;64.38;101114.34;2452264;28;45234;-88
2022/03/12 00:18:49;;;;;;;;;3.00;3.00;;;;;11.22;64.02;101119.56;2451121;28;46959;-87
2022/03/12 00:20:00;;;;;;;;;6.00;6.00;;;;;11.19;64.03;101117.00;2451416;28;45286;-88
2022/03/12 00:21:12;;;;;;;;;3.50;3.50;;;;;11.19;64.21;101119.63;2451971;28;46137;-88
2022/03/12 00:22:22;;;;;;;;;5.75;4.00;;;;;11.18;64.36;101115.31;2451191;28;44591;-88
2022/03/12 00:23:33;;;;;;;;;5.25;5.25;;;;;11.18;64.30;101120.56;2451510;28;45416;-88
2022/03/12 00:24:44;;;;;;;;;2.50;2.50;;;;;11.16;64.07;101124.97;2452299;27;45156;-88
2022/03/12 00:25:55;;;;;;;;;3.00;3.00;;;;;11.16;64.16;101130.25;2451964;27;45643;-88
2022/03/12 00:27:06;;;;;;;;;3.50;3.50;;;;;11.14;64.21;101127.66;2451490;28;45291;-89
2022/03/12 00:28:16;;;;;;;;;3.50;3.50;;;;;11.14;64.29;101129.44;2454198;27;47226;-88
2022/03/12 00:29:27;;;;;;;;;3.00;3.00;;;;;11.14;64.39;101126.81;2465034;27;45369;-88
2022/03/12 00:30:38;;;;;;;;;4.25;3.25;;;;;11.11;64.63;101125.13;2451917;28;45508;-86
2022/03/12 00:31:51;;;;;;;;;5.00;3.50;;;;;11.12;64.71;101128.63;2452162;27;45206;-85
2022/03/12 00:33:02;;;;;;;;;3.00;2.75;;;;;11.09;64.54;101123.44;2451679;28;46387;-84
2022/03/12 00:34:13;;;;;;;;;4.00;3.75;;;;;11.09;64.87;101115.56;2457070;27;45670;-86
2022/03/12 00:35:23;;;;;;;;;4.00;4.00;;;;;11.12;64.85;101126.00;2454847;27;45373;-85
2022/03/12 00:36:34;;;;;;;;;3.00;2.00;;;;;11.11;65.02;101124.28;2452157;28;44592;-85
2022/03/12 00:37:44;;;;;;;;;4.75;4.00;;;;;11.12;65.07;101126.00;2451694;27;45412;-85
2022/03/12 00:38:55;;;;;;;;;2.50;2.50;;;;;11.11;65.15;101125.13;2452064;28;44789;-85
2022/03/12 00:40:06;;;;;;;;;5.25;4.25;;;;;11.13;65.31;101133.00;2451885;28;46468;-84
2022/03/12 00:41:17;;;;;;;;;3.75;3.75;;;;;11.14;65.18;101129.44;2452170;27;44644;-84
2022/03/12 00:42:27;;;;;;;;;6.75;6.00;;;;;11.15;65.28;101131.16;2451572;28;45240;-86
2022/03/12 00:43:37;;;;;;;;;3.50;3.50;;;;;11.17;65.29;101131.13;2451350;28;45412;-83
2022/03/12 00:44:48;;;;;;;;;3.75;3.75;;;;;11.17;65.36;101131.97;2451239;28;45414;-83
2022/03/12 00:45:59;;;;;;;;;3.75;3.75;;;;;11.21;65.03;101136.25;2452024;28;45436;-83
2022/03/12 00:47:09;;;;;;;;;4.00;2.75;;;;;11.21;65.20;101143.28;2451785;28;45383;-84
2022/03/12 00:48:19;;;;;;;;;4.75;3.25;;;;;11.23;65.20;101144.09;2452098;28;45311;-83
2022/03/12 00:49:30;;;;;;;;;1.75;1.75;;;;;11.22;65.09;101145.88;2451029;28;47094;-83
2022/03/12 00:50:40;;;;;;;;;3.25;3.25;;;;;11.23;65.16;101138.84;2444007;28;45280;-83
2022/03/12 00:51:51;;;;;;;;;5.00;4.00;;;;;11.25;65.15;101148.41;2451150;28;45279;-84
2022/03/12 00:53:02;;;;;;;;;5.00;4.00;;;;;11.25;65.28;101153.69;2451054;27;44690;-83
2022/03/12 00:54:12;;;;;;;;;4.75;2.75;;;;;11.28;64.84;101160.63;2450873;28;45367;-83
2022/03/12 00:55:23;;;;;;;;;4.00;4.00;;;;;11.27;64.99;101153.63;2451999;28;45223;-83
2022/03/12 00:56:33;;;;;;;;;4.50;3.00;;;;;11.30;64.93;101161.44;2451900;27;45577;-83
2022/03/12 00:57:43;;;;;;;;;4.50;4.50;;;;;11.31;65.39;101157.88;2451934;28;45199;-84
2022/03/12 00:58:54;;;;;;;;;4.25;4.25;;;;;11.32;64.90;101162.25;2450962;28;46102;-83
2022/03/12 01:00:12;;;;;;;;;5.00;3.25;;;;;11.33;64.69;101163.13;2451500;28;45294;-85
2022/03/12 01:01:25;;;;;;;;;4.00;4.00;;;;;11.34;64.83;101164.81;2451026;28;47026;-83
2022/03/12 01:02:35;;;;;;;;;4.75;3.50;;;;;11.36;65.05;101176.16;2444243;28;45173;-84
2022/03/12 01:03:45;;;;;;;;;4.50;3.25;;;;;11.37;64.84;101164.75;2451059;27;45549;-84
2022/03/12 01:04:56;;;;;;;;;4.00;4.00;;;;;11.39;64.78;101175.22;2451668;28;44749;-90
2022/03/12 01:06:06;;;;;;;;;6.75;4.00;;;;;11.37;64.87;101175.28;2451669;28;45424;-90
2022/03/12 01:07:17;;;;;;;;;5.50;3.25;;;;;11.40;65.00;101176.94;2450843;28;45296;-90
2022/03/12 01:08:29;;;;;;;;;3.75;3.25;;;;;11.39;64.69;101181.34;2451155;28;45351;-91
2022/03/12 01:09:39;;;;;;;;;2.50;2.50;;;;;11.42;64.94;101183.03;2451200;28;45440;-91
2022/03/12 01:10:51;;;;;;;;;5.50;3.50;;;;;11.39;64.61;101178.72;2441032;28;47201;-90
2022/03/12 01:12:02;;;;;;;;;2.75;2.75;;;;;11.42;64.64;101186.53;2447474;28;45259;-90
2022/03/12 01:13:13;;;;;;;;;2.75;2.75;;;;;11.42;64.68;101183.03;2450907;27;45230;-88
2022/03/12 01:14:24;;;;;;;;;4.00;4.00;;;;;11.43;64.47;101193.50;2450965;28;45307;-90
2022/03/12 01:15:34;;;;;;;;;6.00;4.00;;;;;11.43;64.71;101193.50;2443791;28;46336;-90
2022/03/12 01:16:44;;;;;;;;;5.50;4.25;;;;;11.45;64.93;101191.72;2443986;28;45392;-92
2022/03/12 01:17:55;;;;;;;;;3.25;3.00;;;;;11.44;64.42;101182.09;2443923;28;48040;-93
2022/03/12 01:19:05;;;;;;;;;3.50;3.50;;;;;11.49;64.42;101195.09;2451298;28;44640;-92
2022/03/12 01:20:21;;;;;;;;;3.50;3.50;;;;;11.49;64.88;101195.09;2443900;28;46035;-92
2022/03/12 01:21:31;;;;;;;;;3.75;3.25;;;;;11.48;64.79;101196.88;2451383;27;45340;-92
2022/03/12 01:22:42;;;;;;;;;5.75;3.50;;;;;11.49;64.61;101195.09;2450697;28;47113;-93
2022/03/12 01:23:53;;;;;;;;;2.75;2.50;;;;;11.51;64.66;101198.53;2451285;28;44811;-92
2022/03/12 01:25:06;;;;;;;;;3.25;3.25;;;;;11.51;64.73;101198.53;2444169;28;47199;-92
2022/03/12 01:26:18;;;;;;;;;4.00;4.00;;;;;11.52;64.70;101199.41;2444548;28;44747;-92
2022/03/12 01:27:29;;;;;;;;;2.50;2.50;;;;;11.52;64.91;101197.66;2451083;28;47741;-92
2022/03/12 01:28:40;;;;;;;;;2.75;2.75;;;;;11.53;64.63;101204.63;2444483;28;45399;-90
2022/03/12 01:29:50;;;;;;;;;2.75;2.50;;;;;11.53;64.79;101209.06;2451123;28;45253;-90
2022/03/12 01:31:01;;;;;;;;;5.75;5.50;;;;;11.54;64.80;101200.22;2451661;27;45235;-90
2022/03/12 01:32:13;;;;;;;;;3.50;3.50;;;;;11.53;64.70;101201.16;2450783;28;47019;-89
2022/03/12 01:33:23;;;;;;;;;4.75;4.25;;;;;11.50;64.48;101190.72;2450876;28;45253;-89
2022/03/12 01:34:34;;;;;;;;;3.50;2.50;;;;;11.52;64.15;101196.78;2450853;28;48090;-90
2022/03/12 01:35:44;;;;;;;;;3.50;3.50;;;;;11.51;64.09;101195.06;2443437;28;44658;-90
2022/03/12 01:36:54;;;;;;;;;2.75;2.75;;;;;11.50;63.93;101198.59;2450313;28;45736;-89
2022/03/12 01:38:06;;;;;;;;;2.50;2.50;;;;;11.45;63.42;101191.72;2452009;28;45203;-93
2022/03/12 01:39:16;;;;;;;;;7.50;5.50;;;;;11.44;63.71;101194.38;2441226;28;48236;-90
2022/03/12 01:40:28;;;;;;;;;2.25;2.00;;;;;11.41;63.83;101195.31;2440330;28;44845;-91
2022/03/12 01:41:41;;;;;;;;;7.50;3.00;;;;;11.38;63.83;101195.44;2450873;28;45345;-90
2022/03/12 01:42:52;;;;;;;;;5.00;3.75;;;;;11.37;63.89;101193.69;2458073;27;44595;-89
2022/03/12 01:44:02;;;;;;;;;5.75;3.75;;;;;11.32;63.44;101195.59;2444860;28;45950;-90
2022/03/12 01:45:22;;;;;;;;;4.75;4.75;;;;;11.29;63.42;101196.53;2451075;28;44717;-89
2022/03/12 01:46:35;;;;;;;;;6.50;5.75;;;;;11.28;63.68;101202.72;2451592;27;45570;-90
2022/03/12 01:47:46;;;;;;;;;3.50;3.50;;;;;11.24;63.51;101204.56;2451585;27;45276;-91
2022/03/12 01:48:59;;;;;;;;;6.00;6.00;;;;;11.19;63.79;101206.47;2450619;28;46222;-92
2022/03/12 01:50:10;;;;;;;;;4.50;3.25;;;;;11.19;63.72;101206.47;2450732;28;45255;-91
2022/03/12 01:51:20;;;;;;;;;6.50;4.25;;;;;11.16;63.78;101200.44;2450697;28;46095;-92
2022/03/12 01:52:31;;;;;;;;;6.25;5.00;;;;;11.14;63.60;101203.97;2443456;28;45244;-92
2022/03/12 01:53:41;;;;;;;;;4.00;3.00;;;;;11.11;63.67;101201.41;2450999;28;45214;-92
2022/03/12 01:54:51;;;;;;;;;3.75;3.75;;;;;11.09;63.44;101202.34;2450995;28;44560;-90
2022/03/12 01:56:03;;;;;;;;;4.75;4.50;;;;;11.05;63.96;101204.22;2443921;28;47197;-91
2022/03/12 01:57:13;;;;;;;;;4.75;3.25;;;;;11.05;63.96;101208.63;2451005;28;45290;-89
2022/03/12 01:58:24;;;;;;;;;5.00;5.00;;;;;11.02;64.39;101215.69;2450420;28;47159;-88
2022/03/12 01:59:36;;;;;;;;;3.25;3.25;;;;;11.01;64.45;101223.63;2451125;28;45246;-88
2022/03/12 02:00:49;;;;;;;;;3.75;3.75;;;;;11.01;64.61;101216.59;2451159;27;46510;-88
2022/03/12 02:02:01;;;;;;;;;5.00;5.00;;;;;11.02;64.78;101215.69;2450670;28;45518;-89
2022/03/12 02:03:13;;;;;;;;;4.50;4.50;;;;;11.01;64.68;101215.75;2443045;28;47350;-89
2022/03/12 02:04:25;;;;;;;;;4.25;4.25;;;;;11.01;65.06;101213.13;2450048;28;45437;-89
2022/03/12 02:05:35;;;;;;;;;4.50;4.00;;;;;11.02;64.86;101215.69;2450245;28;46464;-88
2022/03/12 02:06:46;;;;;;;;;3.00;3.00;;;;;11.05;64.93;101227.03;2449938;28;45465;-89
2022/03/12 02:07:58;;;;;;;;;4.00;4.00;;;;;11.05;64.86;101229.66;2443430;28;48144;-88
2022/03/12 02:09:13;;;;;;;;;4.75;3.00;;;;;11.05;65.05;101234.94;2450996;28;45442;-88
2022/03/12 02:10:25;;;;;;;;;4.50;4.50;;;;;11.07;64.84;101233.13;2452869;27;45637;-86
2022/03/12 02:11:38;;;;;;;;;3.75;3.25;;;;;11.06;64.81;101232.28;2456698;27;44701;-86
2022/03/12 02:12:48;;;;;;;;;6.50;6.00;;;;;11.07;64.99;101233.97;2450044;28;48117;-86
2022/03/12 02:13:59;;;;;;;;;4.00;4.00;;;;;11.10;64.80;101228.66;2450448;28;45469;-87
2022/03/12 02:15:09;;;;;;;;;4.25;3.00;;;;;11.08;64.80;101233.09;2451325;27;45335;-87
2022/03/12 02:16:20;;;;;;;;;3.75;3.75;;;;;11.07;64.66;101228.72;2451273;27;45234;-89
2022/03/12 02:17:30;;;;;;;;;3.00;3.00;;;;;11.11;64.89;101227.72;2451149;28;45423;-89
2022/03/12 02:18:47;;;;;;;;;4.75;4.00;;;;;11.11;64.86;101226.88;2450379;28;45690;-89
2022/03/12 02:19:57;;;;;;;;;7.00;4.25;;;;;11.11;65.03;101227.72;2454048;27;48179;-89
2022/03/12 02:21:08;;;;;;;;;4.25;4.00;;;;;11.09;64.54;101233.94;2461623;27;45371;-89
2022/03/12 02:22:18;;;;;;;;;3.50;3.50;;;;;11.09;64.52;101231.28;2450827;28;45455;-89
2022/03/12 02:23:29;;;;;;;;;6.00;6.00;;;;;11.08;64.35;101229.59;2451296;27;45337;-89
2022/03/12 02:24:39;;;;;;;;;4.25;4.00;;;;;11.07;64.39;101227.84;2451003;27;45472;-89
2022/03/12 02:25:50;;;;;;;;;6.50;4.00;;;;;11.08;64.26;101234.84;2451146;27;45363;-89
2022/03/12 02:27:04;;;;;;;;;4.75;4.75;;;;;11.05;64.47;101233.16;2451024;28;45308;-89
2022/03/12 02:28:19;;;;;;;;;4.75;3.50;;;;;11.04;64.24;101226.16;2450498;28;45173;-88
2022/03/12 02:29:30;;;;;;;;;5.25;5.00;;;;;11.02;64.51;101225.34;2450519;28;45630;-89
2022/03/12 02:30:55;;;;;;;;;3.75;3.50;;;;;11.00;64.26;101230.66;2451163;27;45231;-88
2022/03/12 02:32:09;;;;;;;;;5.50;3.75;;;;;10.98;64.70;101227.22;2451076;28;45640;-86
2022/03/12 02:33:24;;;;;;;;;4.00;4.00;;;;;10.97;64.30;101228.09;2451193;27;45260;-88
2022/03/12 02:34:50;;;;;;;;;4.50;4.00;;;;;10.95;64.29;101232.53;2441340;28;45485;-88
2022/03/12 02:36:01;;;;;;;;;4.00;4.00;;;;;10.93;64.20;101234.38;2450201;28;45440;-88
2022/03/12 02:37:12;;;;;;;;;6.50;6.25;;;;;10.92;64.57;101230.00;2450799;27;46047;-87
2022/03/12 02:38:24;;;;;;;;;4.25;3.75;;;;;10.91;64.69;101223.03;2451261;27;44597;-88
2022/03/12 02:39:37;;;;;;;;;3.25;3.25;;;;;10.91;64.84;101223.03;2451101;28;45581;-88
2022/03/12 02:40:48;;;;;;;;;5.00;5.00;;;;;10.90;64.74;101223.91;2449278;28;45219;-88
2022/03/12 02:42:03;;;;;;;;;4.50;3.25;;;;;10.90;64.72;101223.91;2442569;28;47083;-88
2022/03/12 02:43:13;;;;;;;;;4.75;2.75;;;;;10.91;64.65;101217.75;2449930;28;45465;-88
2022/03/12 02:44:25;;;;;;;;;4.00;4.00;;;;;10.90;64.92;101218.66;2450096;28;46881;-88
2022/03/12 02:45:35;;;;;;;;;6.75;5.25;;;;;10.90;65.01;101216.03;2450669;28;45473;-88
2022/03/12 02:47:10;;;;;;;;;4.00;3.00;;;;;10.91;64.96;101223.03;2450879;27;45359;-88
2022/03/12 02:48:21;;;;;;;;;4.50;4.50;;;;;10.91;65.09;101215.13;2451100;27;44765;-88
2022/03/12 02:49:37;;;;;;;;;4.00;4.00;;;;;10.90;65.15;101206.38;2450070;28;46360;-88
2022/03/12 02:50:47;;;;;;;;;5.75;4.00;;;;;10.89;64.74;101211.69;2443958;28;45491;-88
2022/03/12 02:51:58;;;;;;;;;4.25;3.75;;;;;10.89;64.85;101220.41;2450170;28;45418;-89
2022/03/12 02:53:08;;;;;;;;;6.00;5.25;;;;;10.88;65.05;101221.34;2450950;27;45270;-88
2022/03/12 02:54:19;;;;;;;;;6.00;3.25;;;;;10.88;64.94;101220.47;2450075;28;47381;-89
2022/03/12 02:55:33;;;;;;;;;3.50;3.50;;;;;10.89;64.76;101224.84;2450540;28;45484;-88
2022/03/12 02:56:43;;;;;;;;;3.00;3.00;;;;;10.86;64.90;101222.28;2450275;28;47139;-88
2022/03/12 02:57:53;;;;;;;;;5.75;4.00;;;;;10.87;64.79;101224.00;2450083;28;45505;-89
2022/03/12 02:59:09;;;;;;;;;4.00;4.00;;;;;10.87;65.47;101226.63;2450899;28;45270;-89
2022/03/12 03:00:20;;;;;;;;;4.25;4.00;;;;;10.85;64.79;101228.44;2450143;28;44712;-87
2022/03/12 03:01:32;;;;;;;;;6.75;4.00;;;;;10.85;64.70;101234.56;2443251;28;47254;-87
2022/03/12 03:02:47;;;;;;;;;5.50;5.50;;;;;10.86;64.92;101224.91;2450452;28;45262;-88
2022/03/12 03:03:57;;;;;;;;;6.25;5.50;;;;;10.85;64.98;101233.69;2450805;28;46519;-88
2022/03/12 03:05:28;;;;;;;;;5.50;5.50;;;;;10.82;64.78;101223.25;2450658;28;44617;-88
2022/03/12 03:06:39;;;;;;;;;3.00;3.00;;;;;10.80;64.69;101228.56;2450756;27;46600;-82
2022/03/12 03:07:53;;;;;;;;;9.00;5.75;;;;;10.81;64.79;101232.91;2450953;28;45444;-81
2022/03/12 03:09:04;;;;;;;;;6.00;6.00;;;;;10.78;64.23;101228.59;2450790;28;46366;-82
2022/03/12 03:10:34;;;;;;;;;5.50;5.50;;;;;10.79;64.69;101235.56;2451201;27;44605;-82
2022/03/12 03:11:44;;;;;;;;;5.50;5.50;;;;;10.76;64.66;101230.41;2459196;27;46196;-81
2022/03/12 03:12:56;;;;;;;;;3.75;3.25;;;;;10.73;64.64;101233.13;2450702;28;45140;-84
2022/03/12 03:14:12;;;;;;;;;5.00;4.00;;;;;10.72;64.60;101227.91;2449923;28;47317;-83
2022/03/12 03:15:22;;;;;;;;;5.00;4.00;;;;;10.71;64.54;101240.19;2450084;28;44618;-90
2022/03/12 03:16:33;;;;;;;;;3.50;3.50;;;;;10.69;64.73;101234.94;2450158;28;45265;-89
2022/03/12 03:17:45;;;;;;;;;5.50;5.50;;;;;10.67;64.69;101233.25;2450299;28;45173;-84
2022/03/12 03:18:56;;;;;;;;;6.75;5.25;;;;;10.65;64.59;101227.19;2451484;28;46794;-83
2022/03/12 03:20:07;;;;;;;;;5.50;5.50;;;;;10.63;64.53;101231.63;2452561;28;45158;-82
2022/03/12 03:21:22;;;;;;;;;4.00;3.75;;;;;10.61;64.58;101220.28;2451752;28;46908;-88
2022/03/12 03:22:32;;;;;;;;;3.75;3.75;;;;;10.60;64.60;101229.06;2451615;28;45357;-89
2022/03/12 03:23:46;;;;;;;;;3.00;3.00;;;;;10.57;64.37;101222.09;2451838;28;46297;-90
2022/03/12 03:24:57;;;;;;;;;3.75;3.00;;;;;10.57;64.31;101230.00;2452692;27;45384;-90
2022/03/12 03:26:07;;;;;;;;;5.50;4.00;;;;;10.54;64.35;101227.47;2452587;27;45296;-89
2022/03/12 03:27:17;;;;;;;;;4.75;4.50;;;;;10.51;64.49;101228.41;2451794;27;45460;-88
2022/03/12 03:28:28;;;;;;;;;5.00;5.00;;;;;10.49;64.51;101230.19;2444380;28;46334;-88
2022/03/12 03:29:39;;;;;;;;;4.00;4.00;;;;;10.49;64.37;101235.44;2444574;28;45446;-89
2022/03/12 03:30:49;;;;;;;;;5.50;4.25;;;;;10.46;64.69;101230.25;2444645;28;46594;-88
2022/03/12 03:32:03;;;;;;;;;5.25;3.50;;;;;10.42;64.63;101220.72;2451939;28;45374;-89
2022/03/12 03:33:15;;;;;;;;;6.25;5.75;;;;;10.39;64.54;101220.78;2452381;27;45385;-89
2022/03/12 03:34:26;;;;;;;;;5.00;5.00;;;;;10.38;64.71;101229.56;2452491;27;45275;-89
2022/03/12 03:35:40;;;;;;;;;7.00;4.50;;;;;10.37;64.56;101238.34;2451577;28;47448;-89
2022/03/12 03:36:51;;;;;;;;;5.00;5.00;;;;;10.33;64.20;101229.66;2451442;28;45930;-89
2022/03/12 03:38:01;;;;;;;;;4.25;4.25;;;;;10.32;64.62;101228.81;2451470;28;46392;-89
2022/03/12 03:39:12;;;;;;;;;7.00;5.00;;;;;10.30;64.63;101230.59;2452161;28;45254;-88
2022/03/12 03:40:22;;;;;;;;;6.25;5.00;;;;;10.25;64.69;101227.22;2452010;28;45534;-89
2022/03/12 03:41:33;;;;;;;;;5.00;5.00;;;;;10.26;64.62;101233.34;2452503;28;45204;-88
2022/03/12 03:42:43;;;;;;;;;8.00;6.00;;;;;10.23;64.68;101235.16;2451410;28;46790;-87
2022/03/12 03:43:53;;;;;;;;;6.50;4.75;;;;;10.21;64.58;101242.22;2444678;28;45289;-87
2022/03/12 03:45:04;;;;;;;;;4.00;4.00;;;;;10.21;64.78;101246.59;2451723;28;46221;-88
2022/03/12 03:46:22;;;;;;;;;6.00;5.50;;;;;10.17;65.00;101240.56;2452425;28;45579;-88
2022/03/12 03:47:33;;;;;;;;;5.50;5.50;;;;;10.16;64.91;101245.84;2452272;27;46731;-85
2022/03/12 03:48:46;;;;;;;;;5.00;5.00;;;;;10.16;64.93;101237.94;2452257;28;45234;-86
2022/03/12 03:49:56;;;;;;;;;5.00;5.00;;;;;10.15;64.77;101239.72;2452232;27;45474;-86
2022/03/12 03:51:07;;;;;;;;;6.25;4.50;;;;;10.15;65.02;101238.88;2452429;27;45423;-86
2022/03/12 03:52:18;;;;;;;;;8.25;5.75;;;;;10.12;65.10;101245.91;2451982;28;46218;-86
2022/03/12 03:53:28;;;;;;;;;6.75;5.00;;;;;10.10;64.93;101239.81;2452294;27;44745;-86
2022/03/12 03:54:42;;;;;;;;;4.75;4.75;;;;;10.09;64.89;101253.00;2452235;27;46259;-86
2022/03/12 03:56:00;;;;;;;;;5.50;5.50;;;;;10.06;64.79;101246.06;2452368;27;45214;-84
2022/03/12 03:57:13;;;;;;;;;6.25;5.00;;;;;10.05;65.18;101252.19;2451996;27;46236;-84
2022/03/12 03:58:25;;;;;;;;;5.75;5.75;;;;;10.04;64.90;101247.84;2452291;28;45177;-85
2022/03/12 03:59:35;;;;;;;;;6.00;4.25;;;;;10.02;65.10;101249.66;2452165;28;46381;-85
2022/03/12 04:00:52;;;;;;;;;5.50;5.50;;;;;10.01;64.86;101247.91;2452125;27;45431;-85
2022/03/12 04:02:02;;;;;;;;;7.50;6.25;;;;;9.99;65.10;101244.47;2452320;27;45434;-85
2022/03/12 04:03:13;;;;;;;;;6.25;5.00;;;;;9.97;64.75;101241.00;2451469;28;44735;-85
2022/03/12 04:04:23;;;;;;;;;4.00;4.00;;;;;9.95;64.70;101241.03;2451583;28;46241;-86
2022/03/12 04:05:38;;;;;;;;;8.00;6.00;;;;;9.97;65.09;101246.25;2452119;28;44719;-86
2022/03/12 04:06:49;;;;;;;;;7.75;7.00;;;;;9.93;65.20;101244.56;2451940;28;46352;-88
2022/03/12 04:08:00;;;;;;;;;5.75;5.00;;;;;9.92;64.76;101243.75;2451445;28;45278;-88
2022/03/12 04:09:10;;;;;;;;;3.00;3.00;;;;;9.90;64.93;101238.50;2452157;27;46659;-88
2022/03/12 04:10:21;;;;;;;;;9.50;5.75;;;;;9.89;65.04;101239.41;2451949;27;45344;-88
2022/03/12 04:11:33;;;;;;;;;4.25;4.00;;;;;9.91;65.14;101247.25;2452634;27;48067;-90
2022/03/12 04:12:43;;;;;;;;;6.25;4.75;;;;;9.88;65.06;101242.94;2451327;28;44656;-90
2022/03/12 04:13:57;;;;;;;;;6.00;5.50;;;;;9.86;65.08;101244.72;2443985;28;47062;-90
2022/03/12 04:15:09;;;;;;;;;4.00;2.75;;;;;9.85;65.11;101247.41;2451710;28;45199;-90
2022/03/12 04:16:20;;;;;;;;;5.25;3.75;;;;;9.83;65.39;101238.69;2451286;28;48274;-90
2022/03/12 04:17:33;;;;;;;;;5.25;3.75;;;;;9.84;65.21;101253.53;2451816;28;44578;-91
2022/03/12 04:18:49;;;;;;;;;5.25;5.00;;;;;9.83;64.95;101251.81;2451275;28;48053;-86
2022/03/12 04:20:00;;;;;;;;;3.50;3.50;;;;;9.79;64.86;101248.38;2444951;28;44729;-85
2022/03/12 04:21:13;;;;;;;;;3.00;3.00;;;;;9.78;65.14;101247.50;2451381;28;47242;-85
2022/03/12 04:22:24;;;;;;;;;7.00;3.25;;;;;9.77;65.21;101258.06;2451302;28;45333;-85
2022/03/12 04:23:35;;;;;;;;;4.50;3.75;;;;;9.78;65.19;101258.00;2451782;28;46388;-85
2022/03/12 04:24:46;;;;;;;;;4.00;4.00;;;;;9.77;65.39;101245.81;2452285;28;45483;-85
2022/03/12 04:25:58;;;;;;;;;6.00;5.00;;;;;9.76;65.16;101249.31;2451219;28;46215;-87
2022/03/12 04:27:08;;;;;;;;;3.25;3.25;;;;;9.76;65.37;101253.69;2451701;27;44926;-91
2022/03/12 04:28:20;;;;;;;;;5.50;5.50;;;;;9.74;65.53;101245.00;2451199;28;47074;-91
2022/03/12 04:29:31;;;;;;;;;7.00;6.00;;;;;9.73;65.46;101254.63;2444101;28;44572;-92
2022/03/12 04:30:41;;;;;;;;;4.00;3.50;;;;;9.73;65.25;101252.00;2444256;28;47020;-90
2022/03/12 04:31:52;;;;;;;;;5.00;4.00;;;;;9.74;65.18;101252.88;2444303;28;45252;-90
2022/03/12 04:33:03;;;;;;;;;4.00;4.00;;;;;9.71;65.58;101248.53;2451094;28;47841;-88
2022/03/12 04:34:14;;;;;;;;;3.25;3.25;;;;;9.73;65.36;101251.16;2451586;28;45152;-88
2022/03/12 04:35:25;;;;;;;;;5.00;4.00;;;;;9.71;65.44;101256.41;2451371;28;45265;-89
2022/03/12 04:36:36;;;;;;;;;5.75;4.25;;;;;9.70;65.23;101248.59;2451002;28;45385;-88
2022/03/12 04:37:46;;;;;;;;;5.00;4.50;;;;;9.69;65.20;101252.97;2451484;28;45319;-89
2022/03/12 04:38:57;;;;;;;;;6.00;5.00;;;;;9.67;65.36;101255.63;2452347;28;44598;-93
2022/03/12 04:40:11;;;;;;;;;4.00;4.00;;;;;9.64;65.10;101253.06;2452104;27;45342;-92
2022/03/12 04:41:21;;;;;;;;;5.75;5.75;;;;;9.66;65.21;101253.03;2452179;27;45226;-91
2022/03/12 04:42:32;;;;;;;;;6.00;4.00;;;;;9.62;65.29;101257.50;2461352;27;47043;-92
2022/03/12 04:43:42;;;;;;;;;4.25;4.00;;;;;9.64;65.15;101265.31;2464762;27;45371;-89
2022/03/12 04:44:52;;;;;;;;;6.00;5.00;;;;;9.61;65.29;101262.75;2458232;27;45325;-89
2022/03/12 04:46:03;;;;;;;;;4.00;4.00;;;;;9.59;65.16;101262.78;2452132;28;45238;-89
2022/03/12 04:47:13;;;;;;;;;3.25;3.25;;;;;9.59;64.86;101268.03;2450784;28;47282;-89
2022/03/12 04:48:24;;;;;;;;;4.25;4.25;;;;;9.56;65.56;101258.47;2451524;28;45312;-89
2022/03/12 04:49:34;;;;;;;;;5.50;4.00;;;;;9.54;65.42;101262.88;2451806;28;45324;-89
2022/03/12 04:50:45;;;;;;;;;8.25;6.25;;;;;9.55;65.02;101276.88;2452034;27;45330;-89
2022/03/12 04:51:56;;;;;;;;;5.00;3.75;;;;;9.52;65.46;101269.06;2451518;27;46473;-89
2022/03/12 04:53:08;;;;;;;;;4.25;4.00;;;;;9.52;65.48;101271.69;2451966;27;45455;-91
2022/03/12 04:54:18;;;;;;;;;4.50;4.50;;;;;9.49;65.41;101269.97;2451818;28;45410;-91
2022/03/12 04:55:29;;;;;;;;;3.25;3.25;;;;;9.49;65.47;101266.50;2452183;28;45331;-91
2022/03/12 04:56:40;;;;;;;;;6.50;6.00;;;;;9.47;65.14;101270.91;2451860;28;46428;-90
2022/03/12 04:57:52;;;;;;;;;4.00;4.00;;;;;9.47;65.54;101279.66;2451758;27;45221;-92
2022/03/12 04:59:03;;;;;;;;;6.00;4.25;;;;;9.47;65.34;101276.16;2451181;28;47269;-92
2022/03/12 05:00:19;;;;;;;;;4.50;3.00;;;;;9.45;65.24;101265.69;2450918;28;45416;-92
2022/03/12 05:01:30;;;;;;;;;6.25;5.75;;;;;9.44;65.22;101274.47;2435246;28;48308;-91
2022/03/12 05:02:41;;;;;;;;;4.50;3.00;;;;;9.42;65.16;101279.75;2449392;28;45355;-92
2022/03/12 05:03:52;;;;;;;;;5.50;4.00;;;;;9.42;65.19;101285.00;2451105;28;47204;-91
2022/03/12 05:05:03;;;;;;;;;4.75;4.00;;;;;9.42;65.02;101292.00;2444015;28;45320;-91
2022/03/12 05:06:13;;;;;;;;;5.00;5.00;;;;;9.39;65.07;101286.78;2451330;28;46742;-91
2022/03/12 05:07:25;;;;;;;;;5.00;5.00;;;;;9.39;65.43;101287.66;2451674;28;45262;-91
2022/03/12 05:08:36;;;;;;;;;4.75;4.75;;;;;9.36;65.48;101282.47;2450980;28;47242;-92
2022/03/12 05:09:47;;;;;;;;;6.75;5.00;;;;;9.36;65.28;101282.47;2449578;27;46065;-83
2022/03/12 05:10:57;;;;;;;;;5.00;5.00;;;;;9.36;65.30;101281.63;2447163;28;47174;-84
2022/03/12 05:12:08;;;;;;;;;4.50;4.50;;;;;9.36;65.24;101282.47;2444064;28;45337;-83
2022/03/12 05:13:22;;;;;;;;;7.50;6.00;;;;;9.35;65.09;101286.00;2450563;28;47538;-89
2022/03/12 05:14:35;;;;;;;;;4.50;3.50;;;;;9.34;65.56;101285.13;2451327;28;44675;-87
2022/03/12 05:15:45;;;;;;;;;5.25;5.25;;;;;9.32;65.65;101286.06;2451600;27;45501;-86
2022/03/12 05:16:55;;;;;;;;;4.00;3.75;;;;;9.31;65.25;101289.59;2451841;28;45291;-86
2022/03/12 05:18:09;;;;;;;;;5.25;4.75;;;;;9.30;65.18;101283.47;2451364;28;46282;-87
2022/03/12 05:19:20;;;;;;;;;4.75;4.75;;;;;9.29;65.15;101286.09;2450956;28;45275;-87
2022/03/12 05:20:31;;;;;;;;;5.00;4.25;;;;;9.29;65.23;101292.22;2443698;28;47240;-87
2022/03/12 05:21:41;;;;;;;;;8.00;5.75;;;;;9.29;65.19;101291.34;2443368;28;45238;-87
2022/03/12 05:22:52;;;;;;;;;4.75;4.75;;;;;9.26;65.50;101289.66;2451124;28;46451;-88
2022/03/12 05:24:03;;;;;;;;;8.25;6.75;;;;;9.26;64.81;101286.19;2451791;27;44628;-87
2022/03/12 05:25:13;;;;;;;;;7.50;5.50;;;;;9.23;65.36;101290.56;2451643;28;47386;-86
2022/03/12 05:26:24;;;;;;;;;7.50;6.75;;;;;9.26;65.60;101294.06;2451674;27;45231;-87
2022/03/12 05:27:34;;;;;;;;;6.50;6.50;;;;;9.24;65.12;101294.06;2451207;28;45316;-86
2022/03/12 05:28:45;;;;;;;;;5.00;5.00;;;;;9.20;65.16;101288.03;2451807;28;44727;-86
2022/03/12 05:29:55;;;;;;;;;7.25;5.25;;;;;9.19;65.23;101302.00;2451163;27;45251;-86
2022/03/12 05:31:08;;;;;;;;;5.25;4.75;;;;;9.19;65.41;101301.16;2451668;28;45283;-88
2022/03/12 05:32:18;;;;;;;;;6.25;5.25;;;;;9.17;65.76;101303.81;2451411;28;45504;-87
2022/03/12 05:33:28;;;;;;;;;6.00;5.50;;;;;9.16;65.58;101296.81;2451573;28;45362;-88
2022/03/12 05:34:40;;;;;;;;;7.00;6.00;;;;;9.16;65.26;101301.22;2451384;28;46260;-87